sensor_id;sensor_type;location;lat;lon;timestamp;P1;durP1;ratioP1;P2;durP2;ratioP2
69502;SDS011;56704;54.242;12.442;2022-09-09T00:00:53;13.00;;;7.88;;
69502;SDS011;56704;54.242;12.442;2022-09-09T00:03:30;12.50;;;6.55;;
69502;SDS011;56704;54.242;12.442;2022-09-09T00:06:05;15.57;;;7.75;;
69502;SDS011;56704;54.242;12.442;2022-09-09T00:08:38;14.10;;;7.25;;
69502;SDS011;56704;54.242;12.442;2022-09-09T00:11:15;15.47;;;7.17;;
69502;SDS011;56704;54.242;12.442;2022-09-09T00:13:52;17.95;;;8.60;;
69502;SDS011;56704;54.242;12.442;2022-09-09T00:16:20;17.92;;;8.18;;
69502;SDS011;56704;54.242;12.442;2022-09-09T00:18:52;21.70;;;8.85;;
69502;SDS011;56704;54.242;12.442;2022-09-09T00:21:24;14.73;;;5.70;;
69502;SDS011;56704;54.242;12.442;2022-09-09T00:23:57;27.17;;;9.27;;
69502;SDS011;56704;54.242;12.442;2022-09-09T00:26:26;25.90;;;10.52;;
69502;SDS011;56704;54.242;12.442;2022-09-09T00:29:00;24.15;;;10.07;;
69502;SDS011;56704;54.242;12.442;2022-09-09T00:31:35;21.60;;;9.00;;
69502;SDS011;56704;54.242;12.442;2022-09-09T00:34:03;29.00;;;12.02;;
69502;SDS011;56704;54.242;12.442;2022-09-09T00:36:36;24.30;;;9.17;;
69502;SDS011;56704;54.242;12.442;2022-09-09T00:39:04;20.98;;;8.50;;
69502;SDS011;56704;54.242;12.442;2022-09-09T00:41:33;20.58;;;11.77;;
69502;SDS011;56704;54.242;12.442;2022-09-09T00:44:16;29.40;;;11.25;;
69502;SDS011;56704;54.242;12.442;2022-09-09T00:46:54;31.23;;;13.10;;
69502;SDS011;56704;54.242;12.442;2022-09-09T00:49:31;38.03;;;15.30;;
69502;SDS011;56704;54.242;12.442;2022-09-09T00:52:08;40.17;;;15.82;;
69502;SDS011;56704;54.242;12.442;2022-09-09T00:54:48;29.33;;;11.98;;
69502;SDS011;56704;54.242;12.442;2022-09-09T00:57:23;35.70;;;14.60;;
69502;SDS011;56704;54.242;12.442;2022-09-09T00:59:58;45.25;;;17.10;;
69502;SDS011;56704;54.242;12.442;2022-09-09T01:02:31;28.90;;;13.17;;
69502;SDS011;56704;54.242;12.442;2022-09-09T01:05:05;27.05;;;14.35;;
69502;SDS011;56704;54.242;12.442;2022-09-09T01:07:39;20.42;;;8.45;;
69502;SDS011;56704;54.242;12.442;2022-09-09T01:10:12;29.17;;;12.75;;
69502;SDS011;56704;54.242;12.442;2022-09-09T01:12:47;32.78;;;13.75;;
69502;SDS011;56704;54.242;12.442;2022-09-09T01:15:19;23.23;;;9.20;;
69502;SDS011;56704;54.242;12.442;2022-09-09T01:17:52;29.17;;;12.73;;
69502;SDS011;56704;54.242;12.442;2022-09-09T01:20:24;26.33;;;13.45;;
69502;SDS011;56704;54.242;12.442;2022-09-09T01:23:02;36.03;;;14.43;;
69502;SDS011;56704;54.242;12.442;2022-09-09T01:26:04;38.22;;;16.58;;
69502;SDS011;56704;54.242;12.442;2022-09-09T01:28:39;26.63;;;12.17;;
69502;SDS011;56704;54.242;12.442;2022-09-09T01:31:09;42.58;;;17.77;;
69502;SDS011;56704;54.242;12.442;2022-09-09T01:33:40;40.80;;;17.92;;
69502;SDS011;56704;54.242;12.442;2022-09-09T01:36:09;42.22;;;16.00;;
69502;SDS011;56704;54.242;12.442;2022-09-09T01:38:41;43.38;;;16.90;;
69502;SDS011;56704;54.242;12.442;2022-09-09T01:41:09;50.77;;;19.40;;
69502;SDS011;56704;54.242;12.442;2022-09-09T01:43:35;46.40;;;19.42;;
69502;SDS011;56704;54.242;12.442;2022-09-09T01:46:02;49.72;;;18.50;;
69502;SDS011;56704;54.242;12.442;2022-09-09T01:48:29;45.92;;;17.80;;
69502;SDS011;56704;54.242;12.442;2022-09-09T01:50:56;36.85;;;14.13;;
69502;SDS011;56704;54.242;12.442;2022-09-09T01:53:22;20.77;;;9.20;;
69502;SDS011;56704;54.242;12.442;2022-09-09T01:55:52;34.40;;;13.10;;
69502;SDS011;56704;54.242;12.442;2022-09-09T01:58:31;45.83;;;17.60;;
69502;SDS011;56704;54.242;12.442;2022-09-09T02:01:06;52.00;;;18.63;;
69502;SDS011;56704;54.242;12.442;2022-09-09T02:03:37;48.47;;;17.42;;
69502;SDS011;56704;54.242;12.442;2022-09-09T02:06:07;36.10;;;14.07;;
69502;SDS011;56704;54.242;12.442;2022-09-09T02:08:45;46.38;;;16.55;;
69502;SDS011;56704;54.242;12.442;2022-09-09T02:11:19;39.75;;;15.57;;
69502;SDS011;56704;54.242;12.442;2022-09-09T02:13:51;34.03;;;13.40;;
69502;SDS011;56704;54.242;12.442;2022-09-09T02:16:21;34.38;;;13.18;;
69502;SDS011;56704;54.242;12.442;2022-09-09T02:18:53;36.10;;;14.57;;
69502;SDS011;56704;54.242;12.442;2022-09-09T02:21:24;30.00;;;12.18;;
69502;SDS011;56704;54.242;12.442;2022-09-09T02:23:53;36.50;;;14.50;;
69502;SDS011;56704;54.242;12.442;2022-09-09T02:26:22;22.30;;;9.13;;
69502;SDS011;56704;54.242;12.442;2022-09-09T02:28:52;28.88;;;11.35;;
69502;SDS011;56704;54.242;12.442;2022-09-09T02:31:22;29.30;;;12.97;;
69502;SDS011;56704;54.242;12.442;2022-09-09T02:33:52;28.90;;;11.48;;
69502;SDS011;56704;54.242;12.442;2022-09-09T02:36:22;33.83;;;11.95;;
69502;SDS011;56704;54.242;12.442;2022-09-09T02:38:51;33.20;;;12.32;;
69502;SDS011;56704;54.242;12.442;2022-09-09T02:41:19;33.13;;;14.32;;
69502;SDS011;56704;54.242;12.442;2022-09-09T02:43:48;33.80;;;14.00;;
69502;SDS011;56704;54.242;12.442;2022-09-09T02:46:22;37.00;;;13.93;;
69502;SDS011;56704;54.242;12.442;2022-09-09T02:48:59;32.58;;;11.68;;
69502;SDS011;56704;54.242;12.442;2022-09-09T02:51:30;22.27;;;8.80;;
69502;SDS011;56704;54.242;12.442;2022-09-09T02:54:04;25.38;;;9.98;;
69502;SDS011;56704;54.242;12.442;2022-09-09T02:56:39;27.07;;;10.13;;
69502;SDS011;56704;54.242;12.442;2022-09-09T02:59:08;24.33;;;9.02;;
69502;SDS011;56704;54.242;12.442;2022-09-09T03:01:36;22.75;;;10.07;;
69502;SDS011;56704;54.242;12.442;2022-09-09T03:04:05;26.42;;;10.10;;
69502;SDS011;56704;54.242;12.442;2022-09-09T03:06:31;23.13;;;10.55;;
69502;SDS011;56704;54.242;12.442;2022-09-09T03:08:58;25.27;;;10.40;;
69502;SDS011;56704;54.242;12.442;2022-09-09T03:11:27;22.58;;;8.70;;
69502;SDS011;56704;54.242;12.442;2022-09-09T03:13:54;26.13;;;11.32;;
69502;SDS011;56704;54.242;12.442;2022-09-09T03:16:21;26.48;;;10.43;;
69502;SDS011;56704;54.242;12.442;2022-09-09T03:18:49;28.15;;;10.93;;
69502;SDS011;56704;54.242;12.442;2022-09-09T03:21:16;28.43;;;10.80;;
69502;SDS011;56704;54.242;12.442;2022-09-09T03:23:43;27.95;;;11.15;;
69502;SDS011;56704;54.242;12.442;2022-09-09T03:26:10;28.05;;;10.80;;
69502;SDS011;56704;54.242;12.442;2022-09-09T03:28:37;30.00;;;12.10;;
69502;SDS011;56704;54.242;12.442;2022-09-09T03:31:04;31.35;;;11.70;;
69502;SDS011;56704;54.242;12.442;2022-09-09T03:33:31;22.73;;;9.07;;
69502;SDS011;56704;54.242;12.442;2022-09-09T03:36:02;25.30;;;11.18;;
69502;SDS011;56704;54.242;12.442;2022-09-09T03:38:29;27.20;;;10.63;;
69502;SDS011;56704;54.242;12.442;2022-09-09T03:40:56;26.70;;;11.15;;
69502;SDS011;56704;54.242;12.442;2022-09-09T03:43:24;25.95;;;11.02;;
69502;SDS011;56704;54.242;12.442;2022-09-09T03:45:51;22.27;;;9.23;;
69502;SDS011;56704;54.242;12.442;2022-09-09T03:48:18;26.15;;;10.95;;
69502;SDS011;56704;54.242;12.442;2022-09-09T03:50:45;27.25;;;11.93;;
69502;SDS011;56704;54.242;12.442;2022-09-09T03:53:13;25.88;;;9.80;;
69502;SDS011;56704;54.242;12.442;2022-09-09T03:55:43;24.83;;;9.93;;
69502;SDS011;56704;54.242;12.442;2022-09-09T03:58:10;25.27;;;10.47;;
69502;SDS011;56704;54.242;12.442;2022-09-09T04:00:37;28.15;;;11.15;;
69502;SDS011;56704;54.242;12.442;2022-09-09T04:03:07;25.42;;;10.85;;
69502;SDS011;56704;54.242;12.442;2022-09-09T04:05:34;26.83;;;9.70;;
69502;SDS011;56704;54.242;12.442;2022-09-09T04:08:04;27.90;;;11.13;;
69502;SDS011;56704;54.242;12.442;2022-09-09T04:10:32;20.67;;;8.47;;
69502;SDS011;56704;54.242;12.442;2022-09-09T04:13:02;26.52;;;9.70;;
69502;SDS011;56704;54.242;12.442;2022-09-09T04:15:28;24.77;;;9.98;;
69502;SDS011;56704;54.242;12.442;2022-09-09T04:17:55;25.27;;;10.82;;
69502;SDS011;56704;54.242;12.442;2022-09-09T04:20:22;24.55;;;10.70;;
69502;SDS011;56704;54.242;12.442;2022-09-09T04:22:48;27.30;;;11.70;;
69502;SDS011;56704;54.242;12.442;2022-09-09T04:25:15;23.85;;;9.93;;
69502;SDS011;56704;54.242;12.442;2022-09-09T04:27:43;23.65;;;9.93;;
69502;SDS011;56704;54.242;12.442;2022-09-09T04:30:10;23.30;;;10.10;;
69502;SDS011;56704;54.242;12.442;2022-09-09T04:32:37;23.80;;;10.63;;
69502;SDS011;56704;54.242;12.442;2022-09-09T04:35:03;24.33;;;10.37;;
69502;SDS011;56704;54.242;12.442;2022-09-09T04:37:30;24.75;;;9.80;;
69502;SDS011;56704;54.242;12.442;2022-09-09T04:39:57;23.83;;;10.10;;
69502;SDS011;56704;54.242;12.442;2022-09-09T04:42:27;24.08;;;10.82;;
69502;SDS011;56704;54.242;12.442;2022-09-09T04:44:55;22.45;;;10.30;;
69502;SDS011;56704;54.242;12.442;2022-09-09T04:47:22;22.13;;;10.00;;
69502;SDS011;56704;54.242;12.442;2022-09-09T04:49:48;19.75;;;8.73;;
69502;SDS011;56704;54.242;12.442;2022-09-09T04:52:15;23.52;;;9.40;;
69502;SDS011;56704;54.242;12.442;2022-09-09T04:54:42;23.38;;;9.90;;
69502;SDS011;56704;54.242;12.442;2022-09-09T04:57:10;24.70;;;10.68;;
69502;SDS011;56704;54.242;12.442;2022-09-09T04:59:36;19.07;;;8.20;;
69502;SDS011;56704;54.242;12.442;2022-09-09T05:02:06;22.42;;;9.70;;
69502;SDS011;56704;54.242;12.442;2022-09-09T05:04:34;23.10;;;9.68;;
69502;SDS011;56704;54.242;12.442;2022-09-09T05:07:04;24.85;;;10.45;;
69502;SDS011;56704;54.242;12.442;2022-09-09T05:09:36;27.73;;;10.68;;
69502;SDS011;56704;54.242;12.442;2022-09-09T05:15:30;25.27;;;9.82;;
69502;SDS011;56704;54.242;12.442;2022-09-09T05:17:58;22.30;;;8.95;;
69502;SDS011;56704;54.242;12.442;2022-09-09T05:20:26;26.85;;;11.10;;
69502;SDS011;56704;54.242;12.442;2022-09-09T05:22:53;25.30;;;10.98;;
69502;SDS011;56704;54.242;12.442;2022-09-09T05:25:21;31.27;;;12.87;;
69502;SDS011;56704;54.242;12.442;2022-09-09T05:27:49;28.80;;;12.52;;
69502;SDS011;56704;54.242;12.442;2022-09-09T05:30:16;20.98;;;8.32;;
69502;SDS011;56704;54.242;12.442;2022-09-09T05:32:43;26.52;;;9.88;;
69502;SDS011;56704;54.242;12.442;2022-09-09T05:35:20;20.52;;;8.80;;
69502;SDS011;56704;54.242;12.442;2022-09-09T05:37:58;30.73;;;13.17;;
69502;SDS011;56704;54.242;12.442;2022-09-09T05:41:18;31.20;;;11.77;;
69502;SDS011;56704;54.242;12.442;2022-09-09T05:44:07;29.73;;;11.50;;
69502;SDS011;56704;54.242;12.442;2022-09-09T05:46:33;28.58;;;10.85;;
69502;SDS011;56704;54.242;12.442;2022-09-09T05:49:01;21.73;;;8.77;;
69502;SDS011;56704;54.242;12.442;2022-09-09T06:00:02;30.13;;;11.25;;
69502;SDS011;56704;54.242;12.442;2022-09-09T06:02:29;30.88;;;10.65;;
69502;SDS011;56704;54.242;12.442;2022-09-09T06:04:58;36.87;;;13.97;;
69502;SDS011;56704;54.242;12.442;2022-09-09T06:07:24;30.77;;;12.32;;
69502;SDS011;56704;54.242;12.442;2022-09-09T06:09:51;34.40;;;13.00;;
69502;SDS011;56704;54.242;12.442;2022-09-09T06:12:17;35.13;;;11.85;;
69502;SDS011;56704;54.242;12.442;2022-09-09T06:14:45;34.20;;;13.40;;
69502;SDS011;56704;54.242;12.442;2022-09-09T06:17:13;29.60;;;13.00;;
69502;SDS011;56704;54.242;12.442;2022-09-09T06:19:41;31.48;;;13.23;;
69502;SDS011;56704;54.242;12.442;2022-09-09T06:46:54;34.08;;;14.73;;
69502;SDS011;56704;54.242;12.442;2022-09-09T06:49:41;37.20;;;17.17;;
69502;SDS011;56704;54.242;12.442;2022-09-09T06:52:08;35.67;;;16.42;;
69502;SDS011;56704;54.242;12.442;2022-09-09T06:54:34;34.85;;;16.63;;
69502;SDS011;56704;54.242;12.442;2022-09-09T06:57:02;30.95;;;13.93;;
69502;SDS011;56704;54.242;12.442;2022-09-09T06:59:29;29.02;;;12.13;;
69502;SDS011;56704;54.242;12.442;2022-09-09T07:01:57;29.63;;;15.23;;
69502;SDS011;56704;54.242;12.442;2022-09-09T07:04:23;27.25;;;13.15;;
69502;SDS011;56704;54.242;12.442;2022-09-09T07:06:50;30.95;;;15.43;;
69502;SDS011;56704;54.242;12.442;2022-09-09T07:09:17;27.73;;;13.50;;
69502;SDS011;56704;54.242;12.442;2022-09-09T07:11:44;25.65;;;12.13;;
69502;SDS011;56704;54.242;12.442;2022-09-09T07:14:12;28.30;;;14.07;;
69502;SDS011;56704;54.242;12.442;2022-09-09T07:16:40;27.30;;;13.52;;
69502;SDS011;56704;54.242;12.442;2022-09-09T07:19:09;25.30;;;13.32;;
69502;SDS011;56704;54.242;12.442;2022-09-09T07:21:36;25.05;;;11.48;;
69502;SDS011;56704;54.242;12.442;2022-09-09T07:24:03;29.27;;;13.95;;
69502;SDS011;56704;54.242;12.442;2022-09-09T07:26:32;24.67;;;11.73;;
69502;SDS011;56704;54.242;12.442;2022-09-09T07:28:59;27.30;;;13.60;;
69502;SDS011;56704;54.242;12.442;2022-09-09T07:31:26;28.75;;;13.95;;
69502;SDS011;56704;54.242;12.442;2022-09-09T07:33:55;27.83;;;14.25;;
69502;SDS011;56704;54.242;12.442;2022-09-09T07:36:26;27.38;;;13.82;;
69502;SDS011;56704;54.242;12.442;2022-09-09T07:39:06;27.97;;;14.67;;
69502;SDS011;56704;54.242;12.442;2022-09-09T07:41:57;26.50;;;12.40;;
69502;SDS011;56704;54.242;12.442;2022-09-09T07:44:43;29.48;;;13.85;;
69502;SDS011;56704;54.242;12.442;2022-09-09T07:47:09;27.25;;;13.63;;
69502;SDS011;56704;54.242;12.442;2022-09-09T07:49:42;22.73;;;9.85;;
69502;SDS011;56704;54.242;12.442;2022-09-09T07:52:31;27.90;;;13.37;;
69502;SDS011;56704;54.242;12.442;2022-09-09T07:55:09;26.70;;;12.77;;
69502;SDS011;56704;54.242;12.442;2022-09-09T07:57:35;27.75;;;12.07;;
69502;SDS011;56704;54.242;12.442;2022-09-09T08:00:02;27.75;;;14.75;;
69502;SDS011;56704;54.242;12.442;2022-09-09T08:02:29;26.42;;;13.18;;
69502;SDS011;56704;54.242;12.442;2022-09-09T08:04:56;25.27;;;12.80;;
69502;SDS011;56704;54.242;12.442;2022-09-09T08:07:24;20.95;;;10.00;;
69502;SDS011;56704;54.242;12.442;2022-09-09T08:09:51;30.33;;;13.18;;
69502;SDS011;56704;54.242;12.442;2022-09-09T08:12:19;29.23;;;14.15;;
69502;SDS011;56704;54.242;12.442;2022-09-09T08:14:45;28.95;;;13.50;;
69502;SDS011;56704;54.242;12.442;2022-09-09T08:17:13;26.60;;;12.33;;
69502;SDS011;56704;54.242;12.442;2022-09-09T08:19:40;30.60;;;13.70;;
69502;SDS011;56704;54.242;12.442;2022-09-09T08:22:06;29.08;;;15.43;;
69502;SDS011;56704;54.242;12.442;2022-09-09T08:24:35;31.50;;;14.48;;
69502;SDS011;56704;54.242;12.442;2022-09-09T08:27:01;26.60;;;14.10;;
69502;SDS011;56704;54.242;12.442;2022-09-09T08:29:28;27.23;;;12.97;;
69502;SDS011;56704;54.242;12.442;2022-09-09T08:31:55;30.40;;;14.40;;
69502;SDS011;56704;54.242;12.442;2022-09-09T08:34:23;28.48;;;14.40;;
69502;SDS011;56704;54.242;12.442;2022-09-09T08:36:52;27.35;;;13.30;;
69502;SDS011;56704;54.242;12.442;2022-09-09T08:39:19;28.63;;;16.45;;
69502;SDS011;56704;54.242;12.442;2022-09-09T08:42:02;25.70;;;11.53;;
69502;SDS011;56704;54.242;12.442;2022-09-09T08:44:47;30.05;;;15.00;;
69502;SDS011;56704;54.242;12.442;2022-09-09T08:47:24;28.08;;;13.23;;
69502;SDS011;56704;54.242;12.442;2022-09-09T08:50:06;26.63;;;15.00;;
69502;SDS011;56704;54.242;12.442;2022-09-09T08:52:49;23.90;;;11.27;;
69502;SDS011;56704;54.242;12.442;2022-09-09T08:55:22;26.27;;;12.30;;
69502;SDS011;56704;54.242;12.442;2022-09-09T08:57:55;22.92;;;11.65;;
69502;SDS011;56704;54.242;12.442;2022-09-09T09:00:27;18.20;;;9.45;;
69502;SDS011;56704;54.242;12.442;2022-09-09T09:03:04;24.88;;;12.52;;
69502;SDS011;56704;54.242;12.442;2022-09-09T09:05:36;24.23;;;13.20;;
69502;SDS011;56704;54.242;12.442;2022-09-09T09:08:12;23.37;;;11.93;;
69502;SDS011;56704;54.242;12.442;2022-09-09T09:10:47;25.13;;;10.75;;
69502;SDS011;56704;54.242;12.442;2022-09-09T09:13:17;27.30;;;13.48;;
69502;SDS011;56704;54.242;12.442;2022-09-09T09:15:48;27.48;;;12.75;;
69502;SDS011;56704;54.242;12.442;2022-09-09T09:18:19;26.27;;;15.38;;
69502;SDS011;56704;54.242;12.442;2022-09-09T09:20:50;24.57;;;12.67;;
69502;SDS011;56704;54.242;12.442;2022-09-09T09:23:25;27.38;;;15.75;;
69502;SDS011;56704;54.242;12.442;2022-09-09T09:26:06;27.27;;;14.45;;
69502;SDS011;56704;54.242;12.442;2022-09-09T09:28:42;23.70;;;13.45;;
69502;SDS011;56704;54.242;12.442;2022-09-09T09:31:09;24.33;;;16.27;;
69502;SDS011;56704;54.242;12.442;2022-09-09T09:33:38;18.67;;;10.77;;
69502;SDS011;56704;54.242;12.442;2022-09-09T09:36:13;22.95;;;12.85;;
69502;SDS011;56704;54.242;12.442;2022-09-09T09:38:51;22.02;;;12.70;;
69502;SDS011;56704;54.242;12.442;2022-09-09T09:41:28;23.15;;;13.15;;
69502;SDS011;56704;54.242;12.442;2022-09-09T09:43:56;22.95;;;14.25;;
69502;SDS011;56704;54.242;12.442;2022-09-09T09:46:24;17.33;;;10.33;;
69502;SDS011;56704;54.242;12.442;2022-09-09T09:48:57;19.50;;;12.32;;
69502;SDS011;56704;54.242;12.442;2022-09-09T09:51:25;18.92;;;11.02;;
69502;SDS011;56704;54.242;12.442;2022-09-09T09:53:53;15.82;;;9.85;;
69502;SDS011;56704;54.242;12.442;2022-09-09T09:56:26;19.50;;;11.80;;
69502;SDS011;56704;54.242;12.442;2022-09-09T09:58:54;21.07;;;11.57;;
69502;SDS011;56704;54.242;12.442;2022-09-09T10:01:24;17.77;;;10.57;;
69502;SDS011;56704;54.242;12.442;2022-09-09T10:03:52;14.73;;;8.00;;
69502;SDS011;56704;54.242;12.442;2022-09-09T10:06:29;18.40;;;10.50;;
69502;SDS011;56704;54.242;12.442;2022-09-09T10:08:57;17.13;;;9.90;;
69502;SDS011;56704;54.242;12.442;2022-09-09T10:14:14;17.25;;;10.55;;
69502;SDS011;56704;54.242;12.442;2022-09-09T10:16:50;17.42;;;10.77;;
69502;SDS011;56704;54.242;12.442;2022-09-09T10:19:29;16.65;;;9.57;;
69502;SDS011;56704;54.242;12.442;2022-09-09T10:22:02;19.52;;;10.75;;
69502;SDS011;56704;54.242;12.442;2022-09-09T10:24:51;16.83;;;9.90;;
69502;SDS011;56704;54.242;12.442;2022-09-09T10:27:43;18.65;;;12.77;;
69502;SDS011;56704;54.242;12.442;2022-09-09T10:30:21;19.95;;;14.43;;
69502;SDS011;56704;54.242;12.442;2022-09-09T10:32:53;15.05;;;10.27;;
69502;SDS011;56704;54.242;12.442;2022-09-09T10:35:29;16.52;;;9.68;;
69502;SDS011;56704;54.242;12.442;2022-09-09T10:38:12;17.87;;;13.87;;
69502;SDS011;56704;54.242;12.442;2022-09-09T10:40:42;17.73;;;11.63;;
69502;SDS011;56704;54.242;12.442;2022-09-09T10:43:19;15.35;;;10.90;;
69502;SDS011;56704;54.242;12.442;2022-09-09T10:46:01;16.35;;;9.65;;
69502;SDS011;56704;54.242;12.442;2022-09-09T10:48:36;14.70;;;9.38;;
69502;SDS011;56704;54.242;12.442;2022-09-09T10:51:19;17.07;;;11.40;;
69502;SDS011;56704;54.242;12.442;2022-09-09T10:53:53;14.57;;;9.48;;
69502;SDS011;56704;54.242;12.442;2022-09-09T10:56:31;13.75;;;9.85;;
69502;SDS011;56704;54.242;12.442;2022-09-09T10:59:00;12.48;;;8.82;;
69502;SDS011;56704;54.242;12.442;2022-09-09T11:01:33;14.85;;;9.70;;
69502;SDS011;56704;54.242;12.442;2022-09-09T11:04:05;13.23;;;8.57;;
69502;SDS011;56704;54.242;12.442;2022-09-09T11:06:41;15.23;;;10.55;;
69502;SDS011;56704;54.242;12.442;2022-09-09T11:09:13;13.13;;;8.77;;
69502;SDS011;56704;54.242;12.442;2022-09-09T11:11:44;14.27;;;7.93;;
69502;SDS011;56704;54.242;12.442;2022-09-09T11:14:18;12.32;;;7.55;;
69502;SDS011;56704;54.242;12.442;2022-09-09T11:16:51;13.00;;;8.40;;
69502;SDS011;56704;54.242;12.442;2022-09-09T11:19:23;13.65;;;10.60;;
69502;SDS011;56704;54.242;12.442;2022-09-09T11:21:53;12.60;;;7.75;;
69502;SDS011;56704;54.242;12.442;2022-09-09T11:24:23;11.77;;;7.65;;
69502;SDS011;56704;54.242;12.442;2022-09-09T11:26:57;10.48;;;5.82;;
69502;SDS011;56704;54.242;12.442;2022-09-09T11:32:38;13.32;;;9.02;;
69502;SDS011;56704;54.242;12.442;2022-09-09T11:35:22;10.13;;;6.85;;
69502;SDS011;56704;54.242;12.442;2022-09-09T11:40:45;11.75;;;8.07;;
69502;SDS011;56704;54.242;12.442;2022-09-09T11:43:12;13.20;;;7.40;;
69502;SDS011;56704;54.242;12.442;2022-09-09T11:45:41;11.45;;;7.20;;
69502;SDS011;56704;54.242;12.442;2022-09-09T11:48:23;11.07;;;7.30;;
69502;SDS011;56704;54.242;12.442;2022-09-09T11:50:57;10.40;;;6.53;;
69502;SDS011;56704;54.242;12.442;2022-09-09T11:53:25;10.32;;;6.50;;
69502;SDS011;56704;54.242;12.442;2022-09-09T11:56:06;10.80;;;7.13;;
69502;SDS011;56704;54.242;12.442;2022-09-09T11:58:43;10.02;;;5.80;;
69502;SDS011;56704;54.242;12.442;2022-09-09T12:01:15;9.00;;;6.13;;
69502;SDS011;56704;54.242;12.442;2022-09-09T12:03:54;11.10;;;6.72;;
69502;SDS011;56704;54.242;12.442;2022-09-09T12:06:32;9.73;;;5.97;;
69502;SDS011;56704;54.242;12.442;2022-09-09T12:09:08;9.77;;;6.67;;
69502;SDS011;56704;54.242;12.442;2022-09-09T12:11:42;11.43;;;7.10;;
69502;SDS011;56704;54.242;12.442;2022-09-09T12:14:18;10.52;;;6.90;;
69502;SDS011;56704;54.242;12.442;2022-09-09T12:16:46;9.70;;;6.05;;
69502;SDS011;56704;54.242;12.442;2022-09-09T12:19:15;11.80;;;6.68;;
69502;SDS011;56704;54.242;12.442;2022-09-09T12:21:45;9.90;;;6.20;;
69502;SDS011;56704;54.242;12.442;2022-09-09T12:24:19;10.45;;;5.80;;
69502;SDS011;56704;54.242;12.442;2022-09-09T12:26:52;8.70;;;5.95;;
69502;SDS011;56704;54.242;12.442;2022-09-09T12:29:25;8.65;;;5.50;;
69502;SDS011;56704;54.242;12.442;2022-09-09T12:31:59;8.05;;;4.90;;
69502;SDS011;56704;54.242;12.442;2022-09-09T12:34:39;9.60;;;6.07;;
69502;SDS011;56704;54.242;12.442;2022-09-09T12:37:11;8.00;;;6.03;;
69502;SDS011;56704;54.242;12.442;2022-09-09T12:39:44;9.82;;;6.32;;
69502;SDS011;56704;54.242;12.442;2022-09-09T12:42:16;7.55;;;6.40;;
69502;SDS011;56704;54.242;12.442;2022-09-09T12:44:50;8.77;;;5.60;;
69502;SDS011;56704;54.242;12.442;2022-09-09T12:47:21;8.00;;;5.17;;
69502;SDS011;56704;54.242;12.442;2022-09-09T12:49:53;8.75;;;6.35;;
69502;SDS011;56704;54.242;12.442;2022-09-09T12:52:23;9.57;;;6.53;;
69502;SDS011;56704;54.242;12.442;2022-09-09T12:54:55;8.60;;;6.03;;
69502;SDS011;56704;54.242;12.442;2022-09-09T12:57:22;8.98;;;5.80;;
69502;SDS011;56704;54.242;12.442;2022-09-09T12:59:51;7.60;;;4.67;;
69502;SDS011;56704;54.242;12.442;2022-09-09T13:02:19;8.00;;;5.13;;
69502;SDS011;56704;54.242;12.442;2022-09-09T13:04:47;6.90;;;5.10;;
69502;SDS011;56704;54.242;12.442;2022-09-09T13:07:16;7.30;;;5.18;;
69502;SDS011;56704;54.242;12.442;2022-09-09T13:09:44;8.32;;;4.78;;
69502;SDS011;56704;54.242;12.442;2022-09-09T13:12:13;9.07;;;4.40;;
69502;SDS011;56704;54.242;12.442;2022-09-09T13:14:43;6.10;;;3.92;;
69502;SDS011;56704;54.242;12.442;2022-09-09T13:17:17;12.00;;;4.28;;
69502;SDS011;56704;54.242;12.442;2022-09-09T13:19:46;7.50;;;3.95;;
69502;SDS011;56704;54.242;12.442;2022-09-09T13:22:20;7.68;;;3.70;;
69502;SDS011;56704;54.242;12.442;2022-09-09T13:24:47;6.80;;;4.07;;
69502;SDS011;56704;54.242;12.442;2022-09-09T13:27:24;6.47;;;3.40;;
69502;SDS011;56704;54.242;12.442;2022-09-09T13:29:54;6.90;;;5.05;;
69502;SDS011;56704;54.242;12.442;2022-09-09T13:32:22;6.75;;;3.55;;
69502;SDS011;56704;54.242;12.442;2022-09-09T13:34:52;5.50;;;3.75;;
69502;SDS011;56704;54.242;12.442;2022-09-09T13:37:22;9.17;;;4.00;;
69502;SDS011;56704;54.242;12.442;2022-09-09T13:39:53;7.53;;;3.65;;
69502;SDS011;56704;54.242;12.442;2022-09-09T13:42:24;5.75;;;3.50;;
69502;SDS011;56704;54.242;12.442;2022-09-09T13:44:52;7.35;;;3.85;;
69502;SDS011;56704;54.242;12.442;2022-09-09T13:47:20;7.43;;;3.70;;
69502;SDS011;56704;54.242;12.442;2022-09-09T13:49:48;5.83;;;3.60;;
69502;SDS011;56704;54.242;12.442;2022-09-09T13:52:16;5.80;;;3.58;;
69502;SDS011;56704;54.242;12.442;2022-09-09T13:54:48;6.53;;;3.75;;
69502;SDS011;56704;54.242;12.442;2022-09-09T13:57:16;6.80;;;3.80;;
69502;SDS011;56704;54.242;12.442;2022-09-09T13:59:45;6.13;;;3.60;;
69502;SDS011;56704;54.242;12.442;2022-09-09T14:02:12;7.30;;;3.70;;
69502;SDS011;56704;54.242;12.442;2022-09-09T14:04:39;7.63;;;3.83;;
69502;SDS011;56704;54.242;12.442;2022-09-09T14:07:08;5.20;;;3.20;;
69502;SDS011;56704;54.242;12.442;2022-09-09T14:09:37;6.90;;;3.50;;
69502;SDS011;56704;54.242;12.442;2022-09-09T14:12:05;5.80;;;3.25;;
69502;SDS011;56704;54.242;12.442;2022-09-09T14:14:32;7.03;;;3.60;;
69502;SDS011;56704;54.242;12.442;2022-09-09T14:16:59;5.95;;;2.80;;
69502;SDS011;56704;54.242;12.442;2022-09-09T14:19:25;6.40;;;2.80;;
69502;SDS011;56704;54.242;12.442;2022-09-09T14:21:52;5.68;;;2.80;;
69502;SDS011;56704;54.242;12.442;2022-09-09T14:24:19;6.65;;;3.17;;
69502;SDS011;56704;54.242;12.442;2022-09-09T14:26:45;4.17;;;2.57;;
69502;SDS011;56704;54.242;12.442;2022-09-09T14:29:14;5.88;;;3.20;;
69502;SDS011;56704;54.242;12.442;2022-09-09T14:31:40;5.45;;;2.83;;
69502;SDS011;56704;54.242;12.442;2022-09-09T14:34:07;5.13;;;2.72;;
69502;SDS011;56704;54.242;12.442;2022-09-09T14:36:34;4.95;;;2.55;;
69502;SDS011;56704;54.242;12.442;2022-09-09T14:39:01;6.30;;;2.70;;
69502;SDS011;56704;54.242;12.442;2022-09-09T14:41:27;5.85;;;2.58;;
69502;SDS011;56704;54.242;12.442;2022-09-09T14:43:54;5.60;;;2.63;;
69502;SDS011;56704;54.242;12.442;2022-09-09T14:46:22;6.82;;;3.13;;
69502;SDS011;56704;54.242;12.442;2022-09-09T14:48:49;5.93;;;2.83;;
69502;SDS011;56704;54.242;12.442;2022-09-09T14:51:16;5.67;;;2.87;;
69502;SDS011;56704;54.242;12.442;2022-09-09T14:53:45;5.18;;;2.60;;
69502;SDS011;56704;54.242;12.442;2022-09-09T14:56:13;5.18;;;2.60;;
69502;SDS011;56704;54.242;12.442;2022-09-09T14:58:41;4.72;;;2.40;;
69502;SDS011;56704;54.242;12.442;2022-09-09T15:01:08;6.55;;;2.90;;
69502;SDS011;56704;54.242;12.442;2022-09-09T15:03:38;4.93;;;2.57;;
69502;SDS011;56704;54.242;12.442;2022-09-09T15:06:06;8.80;;;2.60;;
69502;SDS011;56704;54.242;12.442;2022-09-09T15:08:33;5.07;;;2.50;;
69502;SDS011;56704;54.242;12.442;2022-09-09T15:11:00;7.60;;;2.50;;
69502;SDS011;56704;54.242;12.442;2022-09-09T15:13:27;7.03;;;2.60;;
69502;SDS011;56704;54.242;12.442;2022-09-09T15:15:53;5.20;;;2.07;;
69502;SDS011;56704;54.242;12.442;2022-09-09T15:18:20;4.78;;;2.30;;
69502;SDS011;56704;54.242;12.442;2022-09-09T15:20:48;4.40;;;2.30;;
69502;SDS011;56704;54.242;12.442;2022-09-09T15:23:14;5.15;;;2.40;;
69502;SDS011;56704;54.242;12.442;2022-09-09T15:25:49;5.00;;;2.28;;